sensor_id;sensor_type;location;lat;lon;timestamp;temperature;humidity
58153;DHT22;43967;51.634;5.566;2023-07-29T00:03:50;23.00;72.70
58153;DHT22;43967;51.634;5.566;2023-07-29T00:09:11;23.00;72.80
58153;DHT22;43967;51.634;5.566;2023-07-29T00:14:33;23.00;72.70
58153;DHT22;43967;51.634;5.566;2023-07-29T00:19:54;23.00;72.70
58153;DHT22;43967;51.634;5.566;2023-07-29T00:25:16;23.00;72.60
58153;DHT22;43967;51.634;5.566;2023-07-29T00:30:37;23.00;72.60
58153;DHT22;43967;51.634;5.566;2023-07-29T00:35:58;23.00;72.50
58153;DHT22;43967;51.634;5.566;2023-07-29T00:41:21;23.00;72.50
58153;DHT22;43967;51.634;5.566;2023-07-29T00:46:45;23.00;72.50
58153;DHT22;43967;51.634;5.566;2023-07-29T00:52:07;23.00;72.50
58153;DHT22;43967;51.634;5.566;2023-07-29T00:57:29;23.00;72.40
58153;DHT22;43967;51.634;5.566;2023-07-29T01:02:51;23.00;72.40
58153;DHT22;43967;51.634;5.566;2023-07-29T01:08:21;23.00;72.30
58153;DHT22;43967;51.634;5.566;2023-07-29T01:13:50;23.00;72.30
58153;DHT22;43967;51.634;5.566;2023-07-29T01:25:10;23.00;72.30
58153;DHT22;43967;51.634;5.566;2023-07-29T01:30:38;23.00;72.20
58153;DHT22;43967;51.634;5.566;2023-07-29T01:36:18;22.90;72.10
58153;DHT22;43967;51.634;5.566;2023-07-29T01:41:43;22.90;72.10
58153;DHT22;43967;51.634;5.566;2023-07-29T01:47:04;22.90;72.10
58153;DHT22;43967;51.634;5.566;2023-07-29T01:52:26;22.90;72.00
58153;DHT22;43967;51.634;5.566;2023-07-29T01:57:47;22.90;72.00
58153;DHT22;43967;51.634;5.566;2023-07-29T02:03:08;22.90;72.00
58153;DHT22;43967;51.634;5.566;2023-07-29T02:08:30;22.90;72.00
58153;DHT22;43967;51.634;5.566;2023-07-29T02:13:51;22.90;71.90
58153;DHT22;43967;51.634;5.566;2023-07-29T02:19:12;22.90;71.90
58153;DHT22;43967;51.634;5.566;2023-07-29T02:24:33;22.90;71.80
58153;DHT22;43967;51.634;5.566;2023-07-29T02:29:55;22.90;71.90
58153;DHT22;43967;51.634;5.566;2023-07-29T02:35:16;22.90;71.80
58153;DHT22;43967;51.634;5.566;2023-07-29T02:40:38;22.90;71.80
58153;DHT22;43967;51.634;5.566;2023-07-29T02:45:59;22.90;71.70
58153;DHT22;43967;51.634;5.566;2023-07-29T02:51:20;22.90;71.80
58153;DHT22;43967;51.634;5.566;2023-07-29T02:56:41;22.90;71.70
58153;DHT22;43967;51.634;5.566;2023-07-29T03:02:03;22.90;71.60
58153;DHT22;43967;51.634;5.566;2023-07-29T03:07:24;22.90;71.60
58153;DHT22;43967;51.634;5.566;2023-07-29T03:12:46;22.90;71.60
58153;DHT22;43967;51.634;5.566;2023-07-29T03:18:07;22.90;71.50
58153;DHT22;43967;51.634;5.566;2023-07-29T03:23:29;22.90;71.50
58153;DHT22;43967;51.634;5.566;2023-07-29T03:28:51;22.90;71.50
58153;DHT22;43967;51.634;5.566;2023-07-29T03:34:12;22.80;71.40
58153;DHT22;43967;51.634;5.566;2023-07-29T03:39:33;22.80;71.40
58153;DHT22;43967;51.634;5.566;2023-07-29T03:44:54;22.90;71.40
58153;DHT22;43967;51.634;5.566;2023-07-29T03:50:16;22.80;71.30
58153;DHT22;43967;51.634;5.566;2023-07-29T03:55:37;22.80;71.40
58153;DHT22;43967;51.634;5.566;2023-07-29T04:00:58;22.80;71.30
58153;DHT22;43967;51.634;5.566;2023-07-29T04:06:20;22.80;71.30
58153;DHT22;43967;51.634;5.566;2023-07-29T04:11:41;22.80;71.30
58153;DHT22;43967;51.634;5.566;2023-07-29T04:17:02;22.80;71.30
58153;DHT22;43967;51.634;5.566;2023-07-29T04:22:24;22.80;71.20
58153;DHT22;43967;51.634;5.566;2023-07-29T04:27:45;22.80;71.10
58153;DHT22;43967;51.634;5.566;2023-07-29T04:33:06;22.80;71.10
58153;DHT22;43967;51.634;5.566;2023-07-29T04:38:31;22.80;71.10
58153;DHT22;43967;51.634;5.566;2023-07-29T04:43:53;22.80;71.00
58153;DHT22;43967;51.634;5.566;2023-07-29T04:49:14;22.80;71.00
58153;DHT22;43967;51.634;5.566;2023-07-29T04:54:35;22.80;71.00
58153;DHT22;43967;51.634;5.566;2023-07-29T04:59:57;22.80;71.00
58153;DHT22;43967;51.634;5.566;2023-07-29T05:05:18;22.80;70.90
58153;DHT22;43967;51.634;5.566;2023-07-29T05:10:39;22.80;70.90
58153;DHT22;43967;51.634;5.566;2023-07-29T05:16:00;22.80;70.90
58153;DHT22;43967;51.634;5.566;2023-07-29T05:21:22;22.80;70.90
58153;DHT22;43967;51.634;5.566;2023-07-29T05:26:43;22.80;70.90
58153;DHT22;43967;51.634;5.566;2023-07-29T05:32:05;22.80;70.80
58153;DHT22;43967;51.634;5.566;2023-07-29T05:37:26;22.80;70.70
58153;DHT22;43967;51.634;5.566;2023-07-29T05:42:47;22.80;70.70
58153;DHT22;43967;51.634;5.566;2023-07-29T05:53:19;22.80;70.50
58153;DHT22;43967;51.634;5.566;2023-07-29T05:58:41;22.80;70.40
58153;DHT22;43967;51.634;5.566;2023-07-29T06:04:02;22.90;70.30
58153;DHT22;43967;51.634;5.566;2023-07-29T06:09:23;22.90;70.10
58153;DHT22;43967;51.634;5.566;2023-07-29T06:14:45;23.00;69.80
58153;DHT22;43967;51.634;5.566;2023-07-29T06:20:06;23.10;69.70
58153;DHT22;43967;51.634;5.566;2023-07-29T06:25:28;23.20;69.40
58153;DHT22;43967;51.634;5.566;2023-07-29T06:30:49;23.50;68.80
58153;DHT22;43967;51.634;5.566;2023-07-29T06:36:11;23.50;68.60
58153;DHT22;43967;51.634;5.566;2023-07-29T06:41:32;23.80;67.90
58153;DHT22;43967;51.634;5.566;2023-07-29T06:46:53;23.80;67.70
58153;DHT22;43967;51.634;5.566;2023-07-29T06:52:14;23.70;67.60
58153;DHT22;43967;51.634;5.566;2023-07-29T06:57:36;25.90;61.90
58153;DHT22;43967;51.634;5.566;2023-07-29T07:02:57;29.60;52.90
58153;DHT22;43967;51.634;5.566;2023-07-29T07:08:18;31.50;48.80
58153;DHT22;43967;51.634;5.566;2023-07-29T07:13:40;32.60;46.60
58153;DHT22;43967;51.634;5.566;2023-07-29T07:19:01;32.00;47.20
58153;DHT22;43967;51.634;5.566;2023-07-29T07:24:22;29.60;52.20
58153;DHT22;43967;51.634;5.566;2023-07-29T07:29:43;29.70;51.70
58153;DHT22;43967;51.634;5.566;2023-07-29T07:35:05;27.70;56.40
58153;DHT22;43967;51.634;5.566;2023-07-29T07:40:26;26.40;60.10
58153;DHT22;43967;51.634;5.566;2023-07-29T07:45:47;25.60;62.60
58153;DHT22;43967;51.634;5.566;2023-07-29T07:51:12;25.10;63.50
58153;DHT22;43967;51.634;5.566;2023-07-29T07:56:34;24.80;64.40
58153;DHT22;43967;51.634;5.566;2023-07-29T08:01:55;24.60;65.20
58153;DHT22;43967;51.634;5.566;2023-07-29T08:07:16;24.40;66.00
58153;DHT22;43967;51.634;5.566;2023-07-29T08:12:38;24.30;66.30
58153;DHT22;43967;51.634;5.566;2023-07-29T08:17:59;24.20;66.90
58153;DHT22;43967;51.634;5.566;2023-07-29T08:23:21;24.20;68.10
58153;DHT22;43967;51.634;5.566;2023-07-29T08:28:42;24.30;67.70
58153;DHT22;43967;51.634;5.566;2023-07-29T08:34:03;24.30;68.60
58153;DHT22;43967;51.634;5.566;2023-07-29T08:39:25;24.20;69.20
58153;DHT22;43967;51.634;5.566;2023-07-29T08:44:49;24.20;69.30
58153;DHT22;43967;51.634;5.566;2023-07-29T08:50:11;24.20;69.40
58153;DHT22;43967;51.634;5.566;2023-07-29T08:55:33;24.30;69.40
58153;DHT22;43967;51.634;5.566;2023-07-29T09:00:54;24.20;69.50
58153;DHT22;43967;51.634;5.566;2023-07-29T09:06:16;24.20;70.40
58153;DHT22;43967;51.634;5.566;2023-07-29T09:11:37;24.20;70.50
58153;DHT22;43967;51.634;5.566;2023-07-29T09:16:59;24.10;70.80
58153;DHT22;43967;51.634;5.566;2023-07-29T09:22:21;24.10;70.30
58153;DHT22;43967;51.634;5.566;2023-07-29T09:27:42;24.10;68.50
58153;DHT22;43967;51.634;5.566;2023-07-29T09:33:03;24.00;67.60
58153;DHT22;43967;51.634;5.566;2023-07-29T09:38:28;24.00;69.40
58153;DHT22;43967;51.634;5.566;2023-07-29T09:43:58;24.00;69.50
58153;DHT22;43967;51.634;5.566;2023-07-29T09:49:22;24.00;69.80
58153;DHT22;43967;51.634;5.566;2023-07-29T09:54:44;24.00;70.10
58153;DHT22;43967;51.634;5.566;2023-07-29T10:00:07;23.90;69.90
58153;DHT22;43967;51.634;5.566;2023-07-29T10:05:29;24.00;69.60
58153;DHT22;43967;51.634;5.566;2023-07-29T10:10:50;24.00;70.00
58153;DHT22;43967;51.634;5.566;2023-07-29T10:16:13;24.00;70.10
58153;DHT22;43967;51.634;5.566;2023-07-29T10:21:37;24.00;70.40
58153;DHT22;43967;51.634;5.566;2023-07-29T10:27:00;24.00;70.40
58153;DHT22;43967;51.634;5.566;2023-07-29T10:32:25;24.00;70.60
58153;DHT22;43967;51.634;5.566;2023-07-29T10:37:46;24.00;70.80
58153;DHT22;43967;51.634;5.566;2023-07-29T10:43:12;24.00;71.00
58153;DHT22;43967;51.634;5.566;2023-07-29T10:53:59;24.10;71.20
58153;DHT22;43967;51.634;5.566;2023-07-29T11:04:50;24.10;71.90
58153;DHT22;43967;51.634;5.566;2023-07-29T11:10:12;24.10;71.40
58153;DHT22;43967;51.634;5.566;2023-07-29T11:15:34;24.00;71.60
58153;DHT22;43967;51.634;5.566;2023-07-29T11:20:56;23.90;71.90
58153;DHT22;43967;51.634;5.566;2023-07-29T11:26:17;23.90;71.90
58153;DHT22;43967;51.634;5.566;2023-07-29T11:31:39;23.90;72.70
58153;DHT22;43967;51.634;5.566;2023-07-29T11:37:01;23.90;72.10
58153;DHT22;43967;51.634;5.566;2023-07-29T11:42:22;23.90;69.80
58153;DHT22;43967;51.634;5.566;2023-07-29T11:47:44;23.90;70.40
58153;DHT22;43967;51.634;5.566;2023-07-29T11:53:05;24.00;70.60
58153;DHT22;43967;51.634;5.566;2023-07-29T11:58:26;24.00;70.80
58153;DHT22;43967;51.634;5.566;2023-07-29T12:03:49;24.00;70.70
58153;DHT22;43967;51.634;5.566;2023-07-29T12:09:11;24.10;70.50
58153;DHT22;43967;51.634;5.566;2023-07-29T12:14:33;24.00;70.30
58153;DHT22;43967;51.634;5.566;2023-07-29T12:19:55;24.00;70.20
58153;DHT22;43967;51.634;5.566;2023-07-29T12:25:16;23.90;74.00
58153;DHT22;43967;51.634;5.566;2023-07-29T12:30:46;23.70;74.60
58153;DHT22;43967;51.634;5.566;2023-07-29T12:36:08;23.60;73.30
58153;DHT22;43967;51.634;5.566;2023-07-29T12:41:29;23.40;72.90
58153;DHT22;43967;51.634;5.566;2023-07-29T12:46:50;23.40;73.90
58153;DHT22;43967;51.634;5.566;2023-07-29T12:52:12;23.30;74.50
58153;DHT22;43967;51.634;5.566;2023-07-29T12:57:33;23.20;74.60
58153;DHT22;43967;51.634;5.566;2023-07-29T13:02:54;23.30;74.20
58153;DHT22;43967;51.634;5.566;2023-07-29T13:08:16;23.20;75.00
58153;DHT22;43967;51.634;5.566;2023-07-29T13:13:37;23.50;74.50
58153;DHT22;43967;51.634;5.566;2023-07-29T13:18:58;23.60;73.40
58153;DHT22;43967;51.634;5.566;2023-07-29T13:24:19;23.70;73.90
58153;DHT22;43967;51.634;5.566;2023-07-29T13:29:41;23.70;73.90
58153;DHT22;43967;51.634;5.566;2023-07-29T13:35:02;23.90;73.80
58153;DHT22;43967;51.634;5.566;2023-07-29T13:40:23;23.90;73.80
58153;DHT22;43967;51.634;5.566;2023-07-29T13:45:45;23.90;73.50
58153;DHT22;43967;51.634;5.566;2023-07-29T13:51:06;23.90;73.80
58153;DHT22;43967;51.634;5.566;2023-07-29T13:56:27;23.90;74.00
58153;DHT22;43967;51.634;5.566;2023-07-29T14:01:48;23.90;73.80
58153;DHT22;43967;51.634;5.566;2023-07-29T14:07:10;24.00;74.30
58153;DHT22;43967;51.634;5.566;2023-07-29T14:12:31;24.00;74.50
58153;DHT22;43967;51.634;5.566;2023-07-29T14:17:52;24.00;74.30
58153;DHT22;43967;51.634;5.566;2023-07-29T14:23:14;24.00;74.40
58153;DHT22;43967;51.634;5.566;2023-07-29T14:28:36;24.00;74.30
58153;DHT22;43967;51.634;5.566;2023-07-29T14:33:57;24.10;74.30
58153;DHT22;43967;51.634;5.566;2023-07-29T14:39:19;24.10;74.10
58153;DHT22;43967;51.634;5.566;2023-07-29T14:44:40;24.10;74.30
58153;DHT22;43967;51.634;5.566;2023-07-29T14:50:02;24.10;74.10
58153;DHT22;43967;51.634;5.566;2023-07-29T14:55:23;24.10;74.20
58153;DHT22;43967;51.634;5.566;2023-07-29T15:00:44;24.10;74.20
58153;DHT22;43967;51.634;5.566;2023-07-29T15:06:05;24.10;74.30
58153;DHT22;43967;51.634;5.566;2023-07-29T15:11:27;24.10;74.30
58153;DHT22;43967;51.634;5.566;2023-07-29T15:16:48;24.10;74.20
58153;DHT22;43967;51.634;5.566;2023-07-29T15:22:09;24.10;74.20
58153;DHT22;43967;51.634;5.566;2023-07-29T15:27:31;24.10;74.30
58153;DHT22;43967;51.634;5.566;2023-07-29T15:32:52;24.10;74.30
58153;DHT22;43967;51.634;5.566;2023-07-29T15:38:13;24.10;74.30
58153;DHT22;43967;51.634;5.566;2023-07-29T15:43:34;24.10;74.30
58153;DHT22;43967;51.634;5.566;2023-07-29T15:48:56;24.10;74.50
58153;DHT22;43967;51.634;5.566;2023-07-29T15:54:17;24.10;74.70
58153;DHT22;43967;51.634;5.566;2023-07-29T15:59:38;24.10;74.90
58153;DHT22;43967;51.634;5.566;2023-07-29T16:04:59;24.10;74.80
58153;DHT22;43967;51.634;5.566;2023-07-29T16:10:21;24.10;74.70
58153;DHT22;43967;51.634;5.566;2023-07-29T16:15:42;24.10;74.30
58153;DHT22;43967;51.634;5.566;2023-07-29T16:21:04;24.20;74.20
58153;DHT22;43967;51.634;5.566;2023-07-29T16:26:25;24.20;74.10
58153;DHT22;43967;51.634;5.566;2023-07-29T16:31:46;24.10;74.50
58153;DHT22;43967;51.634;5.566;2023-07-29T16:37:07;24.20;74.40
58153;DHT22;43967;51.634;5.566;2023-07-29T16:42:29;24.20;74.30
58153;DHT22;43967;51.634;5.566;2023-07-29T16:47:50;24.20;74.30
58153;DHT22;43967;51.634;5.566;2023-07-29T16:53:12;24.20;74.20
58153;DHT22;43967;51.634;5.566;2023-07-29T16:58:33;24.20;74.30
58153;DHT22;43967;51.634;5.566;2023-07-29T17:03:54;24.20;74.20
58153;DHT22;43967;51.634;5.566;2023-07-29T17:09:16;24.20;74.20
58153;DHT22;43967;51.634;5.566;2023-07-29T17:14:37;24.20;74.10
58153;DHT22;43967;51.634;5.566;2023-07-29T17:19:58;24.20;74.10
58153;DHT22;43967;51.634;5.566;2023-07-29T17:25:19;24.20;74.10
58153;DHT22;43967;51.634;5.566;2023-07-29T17:30:41;24.20;74.10
58153;DHT22;43967;51.634;5.566;2023-07-29T17:36:02;24.20;74.00
58153;DHT22;43967;51.634;5.566;2023-07-29T17:41:23;24.20;74.10
58153;DHT22;43967;51.634;5.566;2023-07-29T17:46:44;24.20;74.10
58153;DHT22;43967;51.634;5.566;2023-07-29T17:52:06;24.20;74.10
58153;DHT22;43967;51.634;5.566;2023-07-29T17:57:27;24.10;74.10
58153;DHT22;43967;51.634;5.566;2023-07-29T18:02:49;24.10;74.00
58153;DHT22;43967;51.634;5.566;2023-07-29T18:08:10;24.10;74.00
58153;DHT22;43967;51.634;5.566;2023-07-29T18:13:31;24.10;73.90
58153;DHT22;43967;51.634;5.566;2023-07-29T18:18:53;24.10;73.90
58153;DHT22;43967;51.634;5.566;2023-07-29T18:24:14;24.10;73.90
58153;DHT22;43967;51.634;5.566;2023-07-29T18:29:35;24.10;74.50
58153;DHT22;43967;51.634;5.566;2023-07-29T18:34:56;24.00;73.80
58153;DHT22;43967;51.634;5.566;2023-07-29T18:40:18;24.00;73.70
58153;DHT22;43967;51.634;5.566;2023-07-29T18:45:39;23.90;71.80
58153;DHT22;43967;51.634;5.566;2023-07-29T18:51:00;23.90;70.10
58153;DHT22;43967;51.634;5.566;2023-07-29T18:56:22;23.80;69.50
58153;DHT22;43967;51.634;5.566;2023-07-29T19:01:43;23.70;68.90
58153;DHT22;43967;51.634;5.566;2023-07-29T19:07:04;23.70;69.30
58153;DHT22;43967;51.634;5.566;2023-07-29T19:12:26;23.60;68.40
58153;DHT22;43967;51.634;5.566;2023-07-29T19:17:47;23.60;68.70
58153;DHT22;43967;51.634;5.566;2023-07-29T19:23:08;23.60;69.00
58153;DHT22;43967;51.634;5.566;2023-07-29T19:28:30;23.60;69.30
58153;DHT22;43967;51.634;5.566;2023-07-29T19:33:51;23.50;70.20
58153;DHT22;43967;51.634;5.566;2023-07-29T19:39:12;23.50;69.40
58153;DHT22;43967;51.634;5.566;2023-07-29T19:44:33;23.40;69.10
58153;DHT22;43967;51.634;5.566;2023-07-29T19:49:55;23.40;68.10
58153;DHT22;43967;51.634;5.566;2023-07-29T19:55:16;23.30;67.00
58153;DHT22;43967;51.634;5.566;2023-07-29T20:00:37;23.30;66.70
58153;DHT22;43967;51.634;5.566;2023-07-29T20:05:59;23.20;66.20
58153;DHT22;43967;51.634;5.566;2023-07-29T20:11:20;23.20;66.20
58153;DHT22;43967;51.634;5.566;2023-07-29T20:16:41;23.10;66.60
58153;DHT22;43967;51.634;5.566;2023-07-29T20:22:02;23.10;66.60
58153;DHT22;43967;51.634;5.566;2023-07-29T20:27:24;23.00;67.10
58153;DHT22;43967;51.634;5.566;2023-07-29T20:32:45;23.00;67.80
58153;DHT22;43967;51.634;5.566;2023-07-29T20:38:07;22.90;67.50
58153;DHT22;43967;51.634;5.566;2023-07-29T20:43:29;22.90;67.60
58153;DHT22;43967;51.634;5.566;2023-07-29T20:48:50;22.90;67.50
58153;DHT22;43967;51.634;5.566;2023-07-29T20:54:11;22.80;67.00
58153;DHT22;43967;51.634;5.566;2023-07-29T20:59:33;22.90;66.60
58153;DHT22;43967;51.634;5.566;2023-07-29T21:04:54;22.90;66.90
58153;DHT22;43967;51.634;5.566;2023-07-29T21:10:15;23.00;67.90
58153;DHT22;43967;51.634;5.566;2023-07-29T21:15:37;23.00;68.20
58153;DHT22;43967;51.634;5.566;2023-07-29T21:20:58;23.10;68.30
58153;DHT22;43967;51.634;5.566;2023-07-29T21:26:19;23.10;68.50
58153;DHT22;43967;51.634;5.566;2023-07-29T21:31:41;23.10;68.60
58153;DHT22;43967;51.634;5.566;2023-07-29T21:37:02;23.10;68.70
58153;DHT22;43967;51.634;5.566;2023-07-29T21:42:23;23.20;68.80
58153;DHT22;43967;51.634;5.566;2023-07-29T21:47:45;23.20;69.10
58153;DHT22;43967;51.634;5.566;2023-07-29T21:53:06;23.20;69.30
58153;DHT22;43967;51.634;5.566;2023-07-29T21:58:27;23.20;69.50
58153;DHT22;43967;51.634;5.566;2023-07-29T22:03:48;23.20;69.60
58153;DHT22;43967;51.634;5.566;2023-07-29T22:09:10;23.20;69.60
58153;DHT22;43967;51.634;5.566;2023-07-29T22:14:31;23.30;69.90
58153;DHT22;43967;51.634;5.566;2023-07-29T22:19:52;23.20;69.80
58153;DHT22;43967;51.634;5.566;2023-07-29T22:25:14;23.20;69.80
58153;DHT22;43967;51.634;5.566;2023-07-29T22:30:35;23.20;69.80
58153;DHT22;43967;51.634;5.566;2023-07-29T22:36:00;23.20;69.80
58153;DHT22;43967;51.634;5.566;2023-07-29T22:41:22;23.20;69.80
58153;DHT22;43967;51.634;5.566;2023-07-29T22:46:46;23.20;69.80
58153;DHT22;43967;51.634;5.566;2023-07-29T22:52:08;23.20;69.80
58153;DHT22;43967;51.634;5.566;2023-07-29T22:57:29;23.20;69.80
58153;DHT22;43967;51.634;5.566;2023-07-29T23:02:50;23.20;69.80
58153;DHT22;43967;51.634;5.566;2023-07-29T23:08:12;23.20;70.40
58153;DHT22;43967;51.634;5.566;2023-07-29T23:13:33;23.20;69.80
58153;DHT22;43967;51.634;5.566;2023-07-29T23:18:54;23.20;69.70
58153;DHT22;43967;51.634;5.566;2023-07-29T23:24:16;23.20;69.70
58153;DHT22;43967;51.634;5.566;2023-07-29T23:29:37;23.10;69.60
58153;DHT22;43967;51.634;5.566;2023-07-29T23:34:58;23.10;69.60
58153;DHT22;43967;51.634;5.566;2023-07-29T23:40:20;23.10;69.60
58153;DHT22;43967;51.634;5.566;2023-07-29T23:45:41;23.10;69.60
58153;DHT22;43967;51.634;5.566;2023-07-29T23:51:02;23.10;69.70
58153;DHT22;43967;51.634;5.566;2023-07-29T23:56:24;23.10;69.60
